createdAt,value
2018-07-20T00:00:23.592Z,30.5
2018-07-20T00:01:30.808Z,31
2018-07-20T00:02:38.015Z,31.4
2018-07-20T00:03:45.226Z,30.3
2018-07-20T00:04:52.436Z,30.8
2018-07-20T00:05:59.646Z,33.9
2018-07-20T00:07:06.853Z,31.5
2018-07-20T00:08:14.066Z,32.9
2018-07-20T00:09:21.480Z,33.4
2018-07-20T00:10:28.725Z,33.9
2018-07-20T00:11:35.937Z,34.7
2018-07-20T00:12:43.162Z,33.4
2018-07-20T00:13:50.370Z,34.2
2018-07-20T00:14:57.306Z,36.2
2018-07-20T00:16:04.528Z,36.6
2018-07-20T00:17:11.456Z,38.8
2018-07-20T00:18:18.669Z,36.7
2018-07-20T00:19:25.875Z,37.4
2018-07-20T00:20:33.089Z,36.1
2018-07-20T00:21:40.299Z,37.2
2018-07-20T00:22:47.510Z,37.2
2018-07-20T00:23:54.452Z,37.1
2018-07-20T00:25:01.396Z,36
2018-07-20T00:26:08.324Z,36.1
2018-07-20T00:27:15.258Z,37.5
2018-07-20T00:28:22.473Z,37.1
2018-07-20T00:29:29.679Z,37.2
2018-07-20T00:30:36.892Z,36.5
2018-07-20T00:31:44.103Z,36.6
2018-07-20T00:32:51.310Z,36.1
2018-07-20T00:33:58.524Z,37.1
2018-07-20T00:35:05.741Z,38
2018-07-20T00:36:12.955Z,36.6
2018-07-20T00:37:20.160Z,37
2018-07-20T00:38:27.372Z,36.5
2018-07-20T00:39:34.590Z,35.1
2018-07-20T00:40:41.521Z,34.1
2018-07-20T00:41:48.737Z,37.4
2018-07-20T00:42:55.955Z,38.6
2018-07-20T00:44:03.167Z,37
2018-07-20T00:45:10.375Z,37.5
2018-07-20T00:46:17.584Z,38.6
2018-07-20T00:47:24.797Z,37.5
2018-07-20T00:48:32.018Z,35.9
2018-07-20T00:49:39.232Z,36.7
2018-07-20T00:50:46.441Z,37.7
2018-07-20T00:51:53.650Z,37.9
2018-07-20T00:53:00.865Z,38.3
2018-07-20T00:54:08.078Z,35.9
2018-07-20T00:55:15.295Z,37.1
2018-07-20T00:56:22.507Z,36.4
2018-07-20T00:57:29.159Z,35.9
2018-07-20T00:58:36.373Z,37.8
2018-07-20T00:59:43.578Z,38.5
2018-07-20T01:00:50.789Z,38.5
2018-07-20T01:01:58.009Z,38.5
2018-07-20T01:03:05.216Z,38.5
2018-07-20T01:04:12.424Z,37.6
2018-07-20T01:05:19.628Z,38.5
2018-07-20T01:06:26.856Z,39.4
2018-07-20T01:07:33.790Z,38.4
2018-07-20T01:08:41.009Z,38.4
2018-07-20T01:09:48.216Z,40.5
2018-07-20T01:10:55.440Z,40.9
2018-07-20T01:12:02.666Z,40.2
2018-07-20T01:13:09.879Z,38.9
2018-07-20T01:14:17.092Z,38.4
2018-07-20T01:15:24.298Z,40.9
2018-07-20T01:16:31.512Z,40
2018-07-20T01:17:38.724Z,38.4
2018-07-20T01:18:45.931Z,38.5
2018-07-20T01:19:52.868Z,39.5
2018-07-20T01:21:00.082Z,40.6
2018-07-20T01:22:07.294Z,40.3
2018-07-20T01:23:14.502Z,40.9
2018-07-20T01:24:21.708Z,39.3
2018-07-20T01:25:28.957Z,40.6
2018-07-20T01:26:36.169Z,41.3
2018-07-20T01:27:43.373Z,42.7
2018-07-20T01:28:50.583Z,42.1
2018-07-20T01:29:57.520Z,39.6
2018-07-20T01:31:04.450Z,41
2018-07-20T01:32:11.665Z,41.1
2018-07-20T01:34:40.758Z,41
2018-07-20T01:35:47.968Z,40.2
2018-07-20T01:36:55.178Z,40.7
2018-07-20T01:38:02.392Z,40.6
2018-07-20T01:39:09.319Z,41.5
2018-07-20T01:40:16.527Z,40.5
2018-07-20T01:41:23.738Z,40.5
2018-07-20T01:42:30.944Z,39.4
2018-07-20T01:43:38.152Z,38.2
2018-07-20T01:44:45.361Z,41.8
2018-07-20T01:45:52.571Z,41.3
2018-07-20T01:46:59.784Z,42.3
2018-07-20T01:48:06.995Z,42.9
2018-07-20T01:49:14.206Z,43
2018-07-20T01:50:21.406Z,41.8
2018-07-20T01:51:28.618Z,41.9
2018-07-20T01:52:35.831Z,42.4
2018-07-20T01:53:43.036Z,44.3
2018-07-20T01:54:50.247Z,41.4
2018-07-20T01:55:57.460Z,43.7
2018-07-20T01:57:04.673Z,40.6
2018-07-20T01:58:11.889Z,43.6
2018-07-20T01:59:19.095Z,41
2018-07-20T02:00:26.330Z,44.3
2018-07-20T02:01:33.530Z,45.8
2018-07-20T02:02:40.744Z,44.3
2018-07-20T02:03:47.955Z,43.2
2018-07-20T02:04:55.173Z,43.6
2018-07-20T02:06:02.375Z,44.2
2018-07-20T02:07:09.584Z,43
2018-07-20T02:08:16.809Z,43.1
2018-07-20T02:09:24.024Z,44.3
2018-07-20T02:10:31.232Z,45.9
2018-07-20T02:11:38.449Z,44.8
2018-07-20T02:12:45.656Z,43.2
2018-07-20T02:13:52.868Z,42.5
2018-07-20T02:15:00.080Z,44.1
2018-07-20T02:16:07.292Z,46.2
2018-07-20T02:17:14.503Z,45.6
2018-07-20T02:18:21.716Z,42.1
2018-07-20T02:19:28.922Z,44
2018-07-20T02:20:36.132Z,45.6
2018-07-20T02:21:43.342Z,45.8
2018-07-20T02:22:50.553Z,47
2018-07-20T02:25:04.673Z,44.8
2018-07-20T02:26:11.884Z,44.6
2018-07-20T02:27:19.107Z,44.9
2018-07-20T02:28:26.310Z,44
2018-07-20T02:29:33.641Z,45.3
2018-07-20T02:30:41.294Z,44.1
2018-07-20T02:31:48.498Z,45.4
2018-07-20T02:32:55.712Z,45.6
2018-07-20T02:34:02.923Z,46.1
2018-07-20T02:35:10.125Z,45.2
2018-07-20T02:36:17.333Z,45.8
2018-07-20T02:37:24.269Z,43.8
2018-07-20T02:38:31.481Z,47
2018-07-20T02:39:38.694Z,44.4
2018-07-20T02:40:45.903Z,44.1
2018-07-20T02:41:53.111Z,45.8
2018-07-20T02:43:00.051Z,46.1
2018-07-20T02:44:07.262Z,46.8
2018-07-20T02:45:14.465Z,46
2018-07-20T02:46:21.674Z,46.2
2018-07-20T02:47:28.887Z,46.5
2018-07-20T02:48:36.097Z,45.6
2018-07-20T02:49:43.302Z,44.7
2018-07-20T02:50:50.515Z,46.4
2018-07-20T02:51:57.717Z,45.6
2018-07-20T02:53:04.930Z,46.3
2018-07-20T02:54:12.134Z,47.6
2018-07-20T02:55:19.344Z,46.7
2018-07-20T02:56:26.558Z,48.1
2018-07-20T02:57:33.769Z,48
2018-07-20T02:58:40.981Z,47.6
2018-07-20T02:59:48.193Z,47.5
2018-07-20T03:00:55.407Z,47.4
2018-07-20T03:02:02.616Z,47.6
2018-07-20T03:03:09.548Z,47.9
2018-07-20T03:04:16.760Z,48.3
2018-07-20T03:05:23.979Z,48.3
2018-07-20T03:06:31.193Z,47.6
2018-07-20T03:07:38.401Z,46.8
2018-07-20T03:08:45.611Z,45.8
2018-07-20T03:09:52.825Z,46.7
2018-07-20T03:11:00.034Z,45.8
2018-07-20T03:12:07.241Z,45.6
2018-07-20T03:13:14.451Z,44.5
2018-07-20T03:14:21.663Z,45.6
2018-07-20T03:15:28.869Z,47
2018-07-20T03:16:36.081Z,46.1
2018-07-20T03:17:43.015Z,46
2018-07-20T03:18:50.224Z,47.6
2018-07-20T03:19:57.158Z,45.4
2018-07-20T03:21:04.186Z,48
2018-07-20T03:22:11.823Z,44.7
2018-07-20T03:23:19.036Z,46.8
2018-07-20T03:24:26.245Z,46.1
2018-07-20T03:25:33.458Z,47.1
2018-07-20T03:26:40.662Z,47
2018-07-20T03:27:47.874Z,49.5
2018-07-20T03:28:55.085Z,48
2018-07-20T03:30:02.299Z,48
2018-07-20T03:31:09.511Z,48.7
2018-07-20T03:32:16.440Z,49.4
2018-07-20T03:33:23.681Z,50.6
2018-07-20T03:34:30.887Z,51.6
2018-07-20T03:35:38.091Z,53.1
2018-07-20T03:36:45.300Z,52.7
2018-07-20T03:37:52.511Z,52.7
2018-07-20T03:38:59.719Z,50.3
2018-07-20T03:40:06.932Z,49
2018-07-20T03:41:14.140Z,52.6
2018-07-20T03:42:21.386Z,54.8
2018-07-20T03:43:28.580Z,55.4
2018-07-20T03:44:35.787Z,56.5
2018-07-20T03:45:43.000Z,54.2
2018-07-20T03:46:49.939Z,56
2018-07-20T03:47:57.145Z,55.6
2018-07-20T03:49:04.109Z,56.7
2018-07-20T03:50:11.818Z,57.7
2018-07-20T03:51:19.021Z,59.2
2018-07-20T03:52:26.229Z,59.2
2018-07-20T03:53:33.438Z,59.2
2018-07-20T03:54:40.642Z,59.7
2018-07-20T03:55:47.857Z,59.2
2018-07-20T03:56:55.081Z,57.5
2018-07-20T03:58:02.021Z,59.2
2018-07-20T03:59:09.226Z,60.1
2018-07-20T04:00:16.179Z,57
2018-07-20T04:01:23.386Z,57
2018-07-20T04:02:30.718Z,55.1
2018-07-20T04:03:38.316Z,55.1
2018-07-20T04:04:45.524Z,55
2018-07-20T04:05:52.749Z,54.9
2018-07-20T04:06:59.950Z,55.8
2018-07-20T04:08:06.896Z,54.6
2018-07-20T04:09:14.107Z,55.1
2018-07-20T04:10:21.197Z,54.3
2018-07-20T04:11:28.782Z,53.4
2018-07-20T04:12:35.994Z,54.4
2018-07-20T04:13:43.198Z,55.3
2018-07-20T04:14:50.410Z,53.6
2018-07-20T04:15:57.612Z,53.7
2018-07-20T04:17:04.821Z,55.4
2018-07-20T04:18:11.757Z,52.1
2018-07-20T04:19:18.969Z,52.1
2018-07-20T04:20:26.179Z,52.5
2018-07-20T04:21:33.121Z,53.2
2018-07-20T04:22:40.047Z,53.1
2018-07-20T04:23:47.261Z,51.9
2018-07-20T04:24:54.470Z,53.4
2018-07-20T04:26:01.409Z,57.4
2018-07-20T04:27:08.349Z,56.5
2018-07-20T04:28:15.288Z,54.9
2018-07-20T04:29:22.499Z,56.6
2018-07-20T04:30:29.166Z,59.5
2018-07-20T04:31:36.374Z,58.5
2018-07-20T04:32:43.580Z,59
2018-07-20T04:33:50.797Z,62.5
2018-07-20T04:34:58.007Z,60
2018-07-20T04:36:05.208Z,58.9
2018-07-20T04:37:12.425Z,60.6
2018-07-20T04:38:19.665Z,59.2
2018-07-20T04:39:26.873Z,64.1
2018-07-20T04:40:33.810Z,61.7
2018-07-20T04:41:41.067Z,63
2018-07-20T04:42:48.270Z,67
2018-07-20T04:43:55.229Z,66.9
2018-07-20T04:45:02.811Z,70.6
2018-07-20T04:46:10.021Z,67.8
2018-07-20T04:47:17.230Z,67.8
2018-07-20T04:48:24.439Z,74.3
2018-07-20T04:49:31.668Z,74.1
2018-07-20T04:50:38.874Z,69.1
2018-07-20T04:51:46.079Z,72.6
2018-07-20T04:52:53.292Z,77.2
2018-07-20T04:54:00.235Z,76.2
2018-07-20T04:55:07.450Z,80.2
2018-07-20T04:56:14.659Z,79.5
2018-07-20T04:57:21.865Z,81
2018-07-20T04:58:29.070Z,83
2018-07-20T04:59:36.278Z,81.9
2018-07-20T05:00:43.486Z,85
2018-07-20T05:01:50.694Z,81.7
2018-07-20T05:02:57.904Z,82.9
2018-07-20T05:04:04.835Z,76.8
2018-07-20T05:05:12.048Z,78.8
2018-07-20T05:07:40.845Z,81.1
2018-07-20T05:08:47.794Z,85.1
2018-07-20T05:09:55.009Z,76.8
2018-07-20T05:11:01.945Z,77.1
2018-07-20T05:12:09.169Z,82.4
2018-07-20T05:13:16.398Z,81.1
2018-07-20T05:14:23.603Z,83.8
2018-07-20T05:15:30.809Z,88.5
2018-07-20T05:16:38.024Z,83.8
2018-07-20T05:17:44.957Z,84.7
2018-07-20T05:18:52.170Z,84.2
2018-07-20T05:19:59.386Z,80.1
2018-07-20T05:21:06.596Z,76.4
2018-07-20T05:22:13.817Z,74
2018-07-20T05:23:21.027Z,72.4
2018-07-20T05:24:28.238Z,73.6
2018-07-20T05:25:35.443Z,74.8
2018-07-20T05:26:42.664Z,77.8
2018-07-20T05:27:49.875Z,77.3
2018-07-20T05:28:56.813Z,79.8
2018-07-20T05:30:04.024Z,80.9
2018-07-20T05:31:11.251Z,81.8
2018-07-20T05:32:18.499Z,80.8
2018-07-20T05:33:25.706Z,82.4
2018-07-20T05:34:32.913Z,77.2
2018-07-20T05:35:40.126Z,81.3
2018-07-20T05:36:47.337Z,79.4
2018-07-20T05:37:54.557Z,81
2018-07-20T05:39:01.490Z,74.5
2018-07-20T05:40:08.699Z,76.6
2018-07-20T05:41:15.907Z,76.4
2018-07-20T05:42:23.115Z,73.9
2018-07-20T05:43:29.771Z,72.1
2018-07-20T05:44:36.981Z,74.3
2018-07-20T05:45:44.239Z,71.3
2018-07-20T05:46:51.448Z,66.8
2018-07-20T05:47:58.654Z,73.8
2018-07-20T05:49:05.584Z,72.2
2018-07-20T05:50:12.521Z,65
2018-07-20T05:51:19.730Z,63.3
2018-07-20T05:52:26.938Z,56.8
2018-07-20T05:53:34.152Z,59.7
2018-07-20T05:54:41.103Z,60.9
2018-07-20T05:55:48.058Z,50.7
2018-07-20T05:56:55.265Z,52.6
2018-07-20T05:58:02.477Z,46.5
2018-07-20T05:59:09.718Z,48.9
2018-07-20T06:00:16.939Z,41.4
2018-07-20T06:01:24.149Z,42.2
2018-07-20T06:02:31.361Z,42.3
2018-07-20T06:03:38.573Z,43.5
2018-07-20T06:04:44.962Z,39.6
2018-07-20T06:05:52.169Z,48.6
2018-07-20T06:06:59.386Z,42.7
2018-07-20T06:08:06.326Z,38
2018-07-20T06:09:13.541Z,34
2018-07-20T06:10:20.749Z,37.4
2018-07-20T06:11:27.959Z,38.2
2018-07-20T06:12:35.168Z,36
2018-07-20T06:13:42.376Z,32
2018-07-20T06:14:49.587Z,31.1
2018-07-20T06:15:56.807Z,34.6
2018-07-20T06:17:03.743Z,26
2018-07-20T06:18:10.959Z,23.2
2018-07-20T06:19:18.173Z,27.3
2018-07-20T06:20:25.381Z,27.6
2018-07-20T06:21:32.593Z,20.5
2018-07-20T06:22:39.807Z,23.3
2018-07-20T06:23:47.034Z,22
2018-07-20T06:24:54.438Z,25.1
2018-07-20T06:26:01.650Z,25.7
2018-07-20T06:27:08.859Z,23.5
2018-07-20T06:28:15.800Z,20.3
2018-07-20T06:29:23.009Z,21.1
2018-07-20T06:30:30.224Z,20.9
2018-07-20T06:31:37.433Z,24.9
2018-07-20T06:32:44.648Z,22.9
2018-07-20T06:33:51.585Z,18.5
2018-07-20T06:34:58.796Z,19.6
2018-07-20T06:36:06.015Z,18.8
2018-07-20T06:37:13.229Z,20.6
2018-07-20T06:38:20.443Z,20.1
2018-07-20T06:39:27.658Z,18
2018-07-20T06:40:34.884Z,15.6
2018-07-20T06:41:42.236Z,18.4
2018-07-20T06:42:49.451Z,19.4
2018-07-20T06:43:56.662Z,20.4
2018-07-20T06:45:03.874Z,21
2018-07-20T06:46:11.089Z,18.7
2018-07-20T06:47:18.300Z,15.7
2018-07-20T06:48:25.503Z,14.7
2018-07-20T06:49:32.718Z,14.8
2018-07-20T06:50:39.930Z,20.8
2018-07-20T06:51:47.149Z,19.1
2018-07-20T06:52:54.091Z,16.8
2018-07-20T06:54:01.304Z,16.6
2018-07-20T06:55:08.519Z,16.8
2018-07-20T06:56:15.729Z,16.7
2018-07-20T06:57:22.954Z,16.5
2018-07-20T06:58:30.373Z,17
2018-07-20T06:59:37.584Z,11.8
2018-07-20T07:00:44.798Z,13.2
2018-07-20T07:01:52.018Z,15.7
2018-07-20T07:02:59.229Z,16.9
2018-07-20T07:04:06.441Z,15.6
2018-07-20T07:05:13.652Z,15.6
2018-07-20T07:06:20.864Z,17.6
2018-07-20T07:07:28.075Z,13.2
2018-07-20T07:08:35.289Z,15.6
2018-07-20T07:09:42.232Z,14.9
2018-07-20T07:10:49.441Z,12.8
2018-07-20T07:11:56.657Z,14.3
2018-07-20T07:13:03.874Z,13.7
2018-07-20T07:14:11.093Z,16
2018-07-20T07:15:18.419Z,16.2
2018-07-20T07:16:26.110Z,21.3
2018-07-20T07:17:33.323Z,17.7
2018-07-20T07:18:40.264Z,14.7
2018-07-20T07:19:47.483Z,14.2
2018-07-20T07:20:54.427Z,16.7
2018-07-20T07:22:01.643Z,16.1
2018-07-20T07:23:08.858Z,19.6
2018-07-20T07:24:16.078Z,17.3
2018-07-20T07:25:22.746Z,20.8
2018-07-20T07:26:29.956Z,19
2018-07-20T07:27:36.893Z,18.2
2018-07-20T07:28:44.106Z,22
2018-07-20T07:29:51.320Z,19.9
2018-07-20T07:30:58.535Z,18.1
2018-07-20T07:32:05.751Z,16.6
2018-07-20T07:33:12.966Z,18.8
2018-07-20T07:34:20.174Z,17.9
2018-07-20T07:35:27.395Z,17.3
2018-07-20T07:36:34.609Z,14.3
2018-07-20T07:37:41.827Z,13.3
2018-07-20T07:38:49.041Z,14
2018-07-20T07:39:56.259Z,10.5
2018-07-20T07:41:03.471Z,7.1
2018-07-20T07:42:10.735Z,9.1
2018-07-20T07:43:18.233Z,11.2
2018-07-20T07:44:25.453Z,10.6
2018-07-20T07:45:32.670Z,8.3
2018-07-20T07:46:39.891Z,8.2
2018-07-20T07:47:47.106Z,10.2
2018-07-20T07:48:54.324Z,6.2
2018-07-20T07:50:01.538Z,9.1
2018-07-20T07:51:08.756Z,9.3
2018-07-20T07:52:16.002Z,5.3
2018-07-20T07:53:23.225Z,7.7
2018-07-20T07:54:30.441Z,8.4
2018-07-20T07:55:37.659Z,5.1
2018-07-20T07:56:44.621Z,5.1
2018-07-20T07:57:51.829Z,6.9
2018-07-20T07:58:59.048Z,3.8
2018-07-20T08:00:06.264Z,5.8
2018-07-20T08:01:13.209Z,3.7
2018-07-20T08:02:20.424Z,6.6
2018-07-20T08:03:27.682Z,3.1
2018-07-20T08:04:35.115Z,4.4
2018-07-20T08:05:42.323Z,2.8
2018-07-20T08:06:49.568Z,1
2018-07-20T08:07:56.783Z,1.5
2018-07-20T08:09:04.001Z,2.4
2018-07-20T08:10:11.276Z,1
2018-07-20T08:11:18.559Z,2
2018-07-20T08:12:25.779Z,1.8
2018-07-20T08:13:32.991Z,2.6
2018-07-20T08:14:40.207Z,3.5
2018-07-20T08:15:47.475Z,4.4
2018-07-20T08:16:54.834Z,3.4
2018-07-20T08:18:02.044Z,4
2018-07-20T08:19:08.983Z,5.2
2018-07-20T08:20:16.200Z,1
2018-07-20T08:21:23.419Z,1
2018-07-20T08:22:30.639Z,1
2018-07-20T08:23:37.852Z,1
2018-07-20T08:24:45.072Z,1
2018-07-20T08:25:52.283Z,1
2018-07-20T08:26:59.500Z,1
2018-07-20T08:28:06.720Z,1
2018-07-20T08:29:13.936Z,2.2
2018-07-20T08:30:21.151Z,3.8
2018-07-20T08:31:28.365Z,2.3
2018-07-20T08:32:35.584Z,1
2018-07-20T08:33:42.802Z,1
2018-07-20T08:34:50.028Z,3.4
2018-07-20T08:35:57.255Z,1.9
2018-07-20T08:37:04.494Z,1.7
2018-07-20T08:38:11.716Z,1
2018-07-20T08:39:18.924Z,1
2018-07-20T08:40:26.142Z,1
2018-07-20T08:41:33.360Z,1
2018-07-20T08:42:40.580Z,3.1
2018-07-20T08:43:47.795Z,1
2018-07-20T08:44:55.017Z,1.7
2018-07-20T08:46:02.235Z,1
2018-07-20T08:47:09.455Z,1
2018-07-20T08:48:16.397Z,1
2018-07-20T08:49:23.610Z,1
2018-07-20T08:50:30.831Z,1
2018-07-20T08:51:38.052Z,1
2018-07-20T08:52:45.262Z,1
2018-07-20T08:53:52.207Z,1.8
2018-07-20T08:54:59.204Z,1
2018-07-20T08:56:06.426Z,1
2018-07-20T08:57:13.641Z,1
2018-07-20T08:58:20.856Z,1
2018-07-20T08:59:28.069Z,1
2018-07-20T09:00:35.288Z,1
2018-07-20T09:01:42.504Z,1
2018-07-20T09:02:49.719Z,1
2018-07-20T09:03:56.938Z,1
2018-07-20T09:05:03.893Z,1
2018-07-20T09:06:11.110Z,1
2018-07-20T09:07:18.322Z,1
2018-07-20T09:08:25.547Z,1
2018-07-20T09:09:32.485Z,1
2018-07-20T09:10:39.928Z,1.1
2018-07-20T09:11:47.143Z,1
2018-07-20T09:12:54.360Z,1
2018-07-20T09:14:01.309Z,1.4
2018-07-20T09:15:08.258Z,1
2018-07-20T09:16:15.476Z,1
2018-07-20T09:17:22.695Z,1.1
2018-07-20T09:18:29.915Z,3.3
2018-07-20T09:19:37.135Z,1
2018-07-20T09:20:44.427Z,1
2018-07-20T09:21:52.173Z,1
2018-07-20T09:22:59.396Z,1
2018-07-20T09:24:06.612Z,1
2018-07-20T09:25:13.832Z,1
2018-07-20T09:26:21.048Z,1
2018-07-20T09:27:28.268Z,1
2018-07-20T09:28:35.486Z,1
2018-07-20T09:29:42.707Z,1
2018-07-20T09:30:49.922Z,1
2018-07-20T09:31:57.137Z,1
2018-07-20T09:33:04.081Z,1
2018-07-20T09:34:11.373Z,1
2018-07-20T09:35:18.882Z,1
2018-07-20T09:36:26.101Z,1
2018-07-20T09:37:33.318Z,1
2018-07-20T09:38:40.261Z,1
2018-07-20T09:39:47.476Z,1
2018-07-20T09:40:54.699Z,1
2018-07-20T09:42:01.969Z,1
2018-07-20T09:43:09.184Z,1
2018-07-20T09:44:16.437Z,1
2018-07-20T09:45:23.449Z,1
2018-07-20T09:46:30.668Z,1
2018-07-20T09:47:38.120Z,1
2018-07-20T09:50:07.851Z,1
2018-07-20T09:51:15.068Z,1
2018-07-20T09:52:22.292Z,1
2018-07-20T09:53:29.510Z,1
2018-07-20T09:54:36.460Z,1
2018-07-20T09:55:43.403Z,1
2018-07-20T09:56:50.622Z,1
2018-07-20T09:57:57.569Z,1
2018-07-20T09:59:04.790Z,1
2018-07-20T10:00:12.205Z,1
2018-07-20T10:01:19.362Z,1
2018-07-20T10:02:26.625Z,1
2018-07-20T10:03:33.577Z,1
2018-07-20T10:04:40.795Z,1
2018-07-20T10:05:48.642Z,1
2018-07-20T10:06:55.949Z,1
2018-07-20T10:08:03.169Z,1
2018-07-20T10:09:10.390Z,1
2018-07-20T10:10:17.615Z,1
2018-07-20T10:11:24.833Z,1
2018-07-20T10:12:32.091Z,1
2018-07-20T10:13:39.404Z,1
2018-07-20T10:14:46.621Z,1
2018-07-20T10:15:53.845Z,1
2018-07-20T10:17:01.061Z,1
2018-07-20T10:18:08.276Z,1
2018-07-20T10:19:15.493Z,1
2018-07-20T10:20:22.710Z,1
2018-07-20T10:21:29.926Z,1
2018-07-20T10:22:37.149Z,1
2018-07-20T10:23:44.365Z,1
2018-07-20T10:24:51.581Z,1
2018-07-20T10:25:58.803Z,1
2018-07-20T10:27:06.028Z,1
2018-07-20T10:28:12.969Z,1
2018-07-20T10:29:20.184Z,1
2018-07-20T10:30:27.405Z,1
2018-07-20T10:31:34.652Z,1
2018-07-20T10:32:42.559Z,1
2018-07-20T10:33:49.780Z,1
2018-07-20T10:34:56.999Z,1
2018-07-20T10:36:04.214Z,1
2018-07-20T10:37:11.433Z,1
2018-07-20T10:39:40.542Z,1
2018-07-20T10:40:47.764Z,1
2018-07-20T10:41:54.985Z,1
2018-07-20T10:43:02.453Z,1
2018-07-20T10:44:09.701Z,1
2018-07-20T10:45:16.925Z,1
2018-07-20T10:46:24.141Z,1
2018-07-20T10:47:31.361Z,1
2018-07-20T10:48:38.575Z,1
2018-07-20T10:49:45.805Z,1
2018-07-20T10:50:52.745Z,1
2018-07-20T10:51:59.969Z,1
2018-07-20T10:53:07.269Z,1
2018-07-20T10:54:14.414Z,1
2018-07-20T10:55:21.362Z,1
2018-07-20T10:56:28.307Z,1
2018-07-20T10:57:35.522Z,1
2018-07-20T10:58:42.739Z,1
2018-07-20T10:59:49.958Z,1
2018-07-20T11:00:57.171Z,1
2018-07-20T11:02:04.394Z,1
2018-07-20T11:03:11.610Z,1
2018-07-20T11:04:18.830Z,1
2018-07-20T11:05:26.045Z,1
2018-07-20T11:06:33.265Z,1
2018-07-20T11:07:40.487Z,1
2018-07-20T11:08:47.709Z,1
2018-07-20T11:09:54.660Z,1
2018-07-20T11:11:01.610Z,1
2018-07-20T11:12:08.829Z,1
2018-07-20T11:13:16.048Z,1
2018-07-20T11:14:22.987Z,1
2018-07-20T11:15:30.204Z,1
2018-07-20T11:16:37.434Z,1
2018-07-20T11:17:44.654Z,1
2018-07-20T11:18:51.893Z,1
2018-07-20T11:19:59.114Z,1
2018-07-20T11:21:06.331Z,1
2018-07-20T11:22:14.382Z,1
2018-07-20T11:23:21.595Z,1
2018-07-20T11:24:28.809Z,1
2018-07-20T11:25:36.031Z,1
2018-07-20T11:26:43.249Z,1
2018-07-20T11:27:50.469Z,1
2018-07-20T11:28:57.688Z,1
2018-07-20T11:30:05.370Z,1
2018-07-20T11:31:13.386Z,1
2018-07-20T11:32:20.611Z,1
2018-07-20T11:33:27.830Z,1
2018-07-20T11:34:34.788Z,1
2018-07-20T11:35:42.049Z,1
2018-07-20T11:36:49.273Z,1
2018-07-20T11:37:56.491Z,1
2018-07-20T11:39:03.437Z,1
2018-07-20T11:40:10.655Z,1
2018-07-20T11:41:17.873Z,1
2018-07-20T11:42:25.093Z,1
2018-07-20T11:43:32.317Z,1
2018-07-20T11:44:39.553Z,1
2018-07-20T11:45:46.781Z,1
2018-07-20T11:46:54.000Z,1
2018-07-20T11:48:01.229Z,1
2018-07-20T11:49:08.443Z,1
2018-07-20T11:50:15.670Z,1
2018-07-20T11:51:22.888Z,1
2018-07-20T11:52:30.109Z,1
2018-07-20T11:53:37.324Z,1
2018-07-20T11:54:44.271Z,1
2018-07-20T11:55:51.240Z,1
2018-07-20T11:56:58.489Z,1
2018-07-20T11:58:05.722Z,1
2018-07-20T11:59:13.346Z,1
2018-07-20T12:00:20.569Z,1
2018-07-20T12:01:27.577Z,1
2018-07-20T12:02:35.196Z,1
2018-07-20T12:03:42.415Z,1
2018-07-20T12:04:49.367Z,1
2018-07-20T12:05:56.593Z,1
2018-07-20T12:07:03.815Z,1
2018-07-20T12:08:11.029Z,1
2018-07-20T12:09:18.287Z,1
2018-07-20T12:10:25.233Z,1
2018-07-20T12:11:32.460Z,1
2018-07-20T12:12:42.292Z,1
2018-07-20T12:13:49.245Z,1
2018-07-20T12:14:56.462Z,1
2018-07-20T12:16:03.683Z,1
2018-07-20T12:17:10.901Z,1
2018-07-20T12:18:18.162Z,1
2018-07-20T12:19:25.385Z,1
2018-07-20T12:20:32.340Z,1
2018-07-20T12:21:39.295Z,1
2018-07-20T12:22:46.518Z,1
2018-07-20T12:23:53.741Z,1
2018-07-20T12:25:00.957Z,1
2018-07-20T12:26:08.189Z,1
2018-07-20T12:27:15.139Z,1
2018-07-20T12:28:22.393Z,1
2018-07-20T12:29:29.605Z,1
2018-07-20T12:30:36.836Z,1
2018-07-20T12:31:44.063Z,1
2018-07-20T12:32:51.291Z,1
2018-07-20T12:33:58.245Z,1
2018-07-20T12:35:05.565Z,1
2018-07-20T12:36:12.811Z,1
2018-07-20T12:37:20.036Z,1
2018-07-20T12:38:27.250Z,1
2018-07-20T12:39:34.476Z,1
2018-07-20T12:40:41.423Z,1
2018-07-20T12:41:48.649Z,1
2018-07-20T12:42:55.606Z,1
2018-07-20T12:44:02.824Z,1
2018-07-20T12:45:10.046Z,1
2018-07-20T12:46:17.270Z,1
2018-07-20T12:47:24.493Z,1
2018-07-20T12:48:31.722Z,1
2018-07-20T12:49:38.948Z,1
2018-07-20T12:50:46.177Z,1
2018-07-20T12:51:53.396Z,1
2018-07-20T12:53:00.624Z,1
2018-07-20T12:54:07.841Z,1
2018-07-20T12:55:15.060Z,1
2018-07-20T12:56:23.241Z,1
2018-07-20T12:57:30.465Z,1
2018-07-20T12:58:37.529Z,1
2018-07-20T12:59:45.145Z,1
2018-07-20T13:00:52.372Z,1
2018-07-20T13:01:59.591Z,1
2018-07-20T13:03:06.811Z,1
2018-07-20T13:04:14.066Z,1
2018-07-20T13:05:21.520Z,1
2018-07-20T13:06:28.746Z,1
2018-07-20T13:07:35.964Z,1
2018-07-20T13:08:43.210Z,1
2018-07-20T13:09:50.169Z,1
2018-07-20T13:10:57.116Z,1
2018-07-20T13:12:04.436Z,1
2018-07-20T13:13:12.098Z,1
2018-07-20T13:14:19.560Z,1
2018-07-20T13:15:26.774Z,1
2018-07-20T13:16:33.995Z,1
2018-07-20T13:17:40.947Z,1
2018-07-20T13:18:48.164Z,1
2018-07-20T13:19:55.396Z,1
2018-07-20T13:21:02.619Z,1
2018-07-20T13:22:09.569Z,1
2018-07-20T13:23:16.796Z,1
2018-07-20T13:24:24.023Z,1
2018-07-20T13:25:31.252Z,1
2018-07-20T13:26:38.480Z,1
2018-07-20T13:27:45.705Z,1
2018-07-20T13:28:52.928Z,1
2018-07-20T13:30:00.156Z,1
2018-07-20T13:31:07.108Z,1
2018-07-20T13:32:14.329Z,1
2018-07-20T13:33:21.552Z,1
2018-07-20T13:34:28.775Z,1
2018-07-20T13:35:36.000Z,1
2018-07-20T13:36:43.221Z,1
2018-07-20T13:37:50.444Z,1
2018-07-20T13:38:57.668Z,1
2018-07-20T13:40:04.896Z,1
2018-07-20T13:41:12.115Z,1
2018-07-20T13:42:19.351Z,1
2018-07-20T13:43:26.573Z,1
2018-07-20T13:44:33.803Z,1
2018-07-20T13:45:40.800Z,1
2018-07-20T13:46:48.025Z,1
2018-07-20T13:47:55.246Z,1
2018-07-20T13:49:02.205Z,1
2018-07-20T13:50:09.437Z,1
2018-07-20T13:51:16.383Z,1
2018-07-20T13:52:23.614Z,1
2018-07-20T13:53:30.827Z,1
2018-07-20T13:54:38.044Z,1
2018-07-20T13:55:45.000Z,1
2018-07-20T13:56:52.217Z,1
2018-07-20T13:57:59.440Z,1
2018-07-20T13:59:06.387Z,1
2018-07-20T14:00:13.611Z,1
2018-07-20T14:01:20.831Z,1
2018-07-20T14:02:28.052Z,1
2018-07-20T14:03:35.004Z,1
2018-07-20T14:04:42.230Z,1
2018-07-20T14:05:49.451Z,1
2018-07-20T14:06:56.671Z,1
2018-07-20T14:08:03.887Z,1
2018-07-20T14:09:11.110Z,1
2018-07-20T14:10:18.377Z,1
2018-07-20T14:11:25.648Z,1
2018-07-20T14:12:33.061Z,1
2018-07-20T14:13:40.290Z,1
2018-07-20T14:14:47.231Z,1
2018-07-20T14:15:54.450Z,1
2018-07-20T14:17:01.674Z,1
2018-07-20T14:18:08.930Z,1
2018-07-20T14:19:16.389Z,1
2018-07-20T14:20:23.611Z,1
2018-07-20T14:21:30.835Z,1
2018-07-20T14:22:37.779Z,1
2018-07-20T14:23:45.016Z,1
2018-07-20T14:24:52.569Z,1
2018-07-20T14:25:59.793Z,1
2018-07-20T14:27:07.016Z,1
2018-07-20T14:28:13.969Z,1
2018-07-20T14:29:21.197Z,1
2018-07-20T14:30:28.421Z,1
2018-07-20T14:31:35.732Z,1
2018-07-20T14:32:43.395Z,1
2018-07-20T14:33:50.620Z,1
2018-07-20T14:34:57.569Z,1
2018-07-20T14:36:04.792Z,1
2018-07-20T14:37:12.017Z,1
2018-07-20T14:38:19.239Z,1
2018-07-20T14:39:26.473Z,1
2018-07-20T14:40:33.696Z,1
2018-07-20T14:41:40.923Z,1
2018-07-20T14:42:48.141Z,1
2018-07-20T14:43:55.093Z,1
2018-07-20T14:45:02.320Z,1
2018-07-20T14:46:09.264Z,1
2018-07-20T14:47:16.485Z,1
2018-07-20T14:48:23.715Z,1
2018-07-20T14:49:30.943Z,1
2018-07-20T14:50:38.158Z,1
2018-07-20T14:51:45.382Z,1
2018-07-20T14:52:52.612Z,1
2018-07-20T14:53:59.849Z,1
2018-07-20T14:55:07.070Z,1
2018-07-20T14:56:14.295Z,1
2018-07-20T14:57:21.518Z,1
2018-07-20T14:58:28.743Z,1
2018-07-20T14:59:35.955Z,1
2018-07-20T15:00:43.186Z,1
2018-07-20T15:01:50.407Z,1
2018-07-20T15:02:57.648Z,1
2018-07-20T15:04:04.873Z,1
2018-07-20T15:05:12.098Z,1
2018-07-20T15:06:19.323Z,1
2018-07-20T15:07:26.548Z,1
2018-07-20T15:08:33.541Z,1
2018-07-20T15:09:40.898Z,1
2018-07-20T15:10:48.119Z,1
2018-07-20T15:11:55.338Z,1
2018-07-20T15:13:02.560Z,1
2018-07-20T15:14:09.786Z,1
2018-07-20T15:15:17.007Z,1
2018-07-20T15:16:24.234Z,1
2018-07-20T15:17:31.458Z,1
2018-07-20T15:18:38.685Z,1
2018-07-20T15:19:45.909Z,1
2018-07-20T15:20:53.142Z,1
2018-07-20T15:22:00.364Z,1
2018-07-20T15:23:07.588Z,1
2018-07-20T15:24:14.817Z,1
2018-07-20T15:25:22.042Z,1
2018-07-20T15:26:28.989Z,1
2018-07-20T15:27:36.215Z,1
2018-07-20T15:28:43.438Z,1
2018-07-20T15:29:50.392Z,1
2018-07-20T15:30:57.611Z,1
2018-07-20T15:32:04.839Z,1
2018-07-20T15:33:12.066Z,1
2018-07-20T15:34:19.294Z,1
2018-07-20T15:35:26.241Z,1
2018-07-20T15:36:33.463Z,1
2018-07-20T15:37:40.421Z,1
2018-07-20T15:38:47.664Z,1
2018-07-20T15:39:54.928Z,1
2018-07-20T15:41:02.444Z,1
2018-07-20T15:42:09.669Z,1
2018-07-20T15:43:16.628Z,1
2018-07-20T15:44:23.854Z,1
2018-07-20T15:45:31.096Z,1
2018-07-20T15:46:38.537Z,1
2018-07-20T15:47:46.426Z,1
2018-07-20T15:48:53.648Z,1
2018-07-20T15:50:00.871Z,1